createdAt,value
2023-03-05T00:01:24.295Z,0.53
2023-03-05T00:03:54.938Z,0.48
2023-03-05T00:06:23.826Z,0.56
2023-03-05T00:08:53.425Z,0.23
2023-03-05T00:11:21.315Z,0.02
2023-03-05T00:13:48.849Z,0.09
2023-03-05T00:16:16.400Z,0.17
2023-03-05T00:18:43.726Z,0.33
2023-03-05T00:21:20.251Z,0.14
2023-03-05T00:23:46.947Z,-0.02
2023-03-05T00:26:13.576Z,-0.04
2023-03-05T00:28:40.379Z,0.02
2023-03-05T00:31:07.048Z,0.01
2023-03-05T00:33:34.072Z,0.05
2023-03-05T00:36:06.551Z,-0.07
2023-03-05T00:38:33.648Z,-0.02
2023-03-05T00:41:00.303Z,-0.14
2023-03-05T00:43:27.123Z,0.09
2023-03-05T00:45:53.989Z,-0.06
2023-03-05T00:48:22.422Z,0.21
2023-03-05T00:50:52.867Z,0.04
2023-03-05T00:53:19.860Z,-0.19
2023-03-05T00:55:46.901Z,-0.39
2023-03-05T00:58:13.629Z,-0.31
2023-03-05T01:00:41.239Z,-0.29
2023-03-05T01:03:09.259Z,-0.05
2023-03-05T01:05:36.123Z,-0.03
2023-03-05T01:08:03.319Z,0.01
2023-03-05T01:10:30.346Z,0.16
2023-03-05T01:12:57.799Z,0.18
2023-03-05T01:15:25.529Z,0.21
2023-03-05T01:17:52.364Z,0.01
2023-03-05T01:20:22.220Z,-0.68
2023-03-05T01:22:49.152Z,-0.40
2023-03-05T01:25:17.332Z,-0.25
2023-03-05T01:27:44.195Z,-0.17
2023-03-05T01:30:14.124Z,-0.23
2023-03-05T01:32:41.000Z,-0.36
2023-03-05T01:35:08.887Z,-0.50
2023-03-05T01:37:35.546Z,-0.46
2023-03-05T01:40:02.371Z,-0.26
2023-03-05T01:42:29.017Z,-0.24
2023-03-05T01:45:02.429Z,-0.23
2023-03-05T01:47:29.757Z,-0.23
2023-03-05T01:49:57.005Z,-0.30
2023-03-05T01:52:26.730Z,-0.33
2023-03-05T01:55:01.183Z,-0.50
2023-03-05T01:58:02.087Z,-0.59
2023-03-05T02:00:33.506Z,-0.45
2023-03-05T02:03:05.070Z,-0.50
2023-03-05T02:05:35.220Z,-0.42
2023-03-05T02:08:06.790Z,-0.41
2023-03-05T02:10:37.750Z,-0.25
2023-03-05T02:13:07.833Z,-0.16
2023-03-05T02:15:34.702Z,-0.28
2023-03-05T02:18:01.486Z,-0.40
2023-03-05T02:20:31.125Z,-0.39
2023-03-05T02:22:57.975Z,-0.61
2023-03-05T02:25:30.065Z,-0.56
2023-03-05T02:28:00.122Z,-0.59
2023-03-05T02:30:28.743Z,-0.58
2023-03-05T02:32:55.457Z,-0.67
2023-03-05T02:35:22.376Z,-0.56
2023-03-05T02:37:49.334Z,-0.75
2023-03-05T02:40:17.062Z,-0.95
2023-03-05T02:42:44.330Z,-1.04
2023-03-05T02:45:11.907Z,-0.97
2023-03-05T02:47:38.869Z,-0.82
2023-03-05T02:50:06.934Z,-0.73
2023-03-05T02:52:33.694Z,-0.61
2023-03-05T02:55:00.462Z,-0.54
2023-03-05T02:57:27.207Z,-0.66
2023-03-05T02:59:53.942Z,-0.64
2023-03-05T03:02:20.756Z,-0.62
2023-03-05T03:04:47.469Z,-0.60
2023-03-05T03:07:15.183Z,-0.49
2023-03-05T03:09:43.207Z,-0.42
2023-03-05T03:12:19.278Z,-0.45
2023-03-05T03:14:45.987Z,-0.73
2023-03-05T03:17:15.642Z,-0.99
2023-03-05T03:19:43.939Z,-1.02
2023-03-05T03:22:13.075Z,-1.08
2023-03-05T03:24:41.011Z,-1.13
2023-03-05T03:27:07.772Z,-1.13
2023-03-05T03:29:35.265Z,-1.11
2023-03-05T03:32:02.228Z,-1.01
2023-03-05T03:34:28.895Z,-0.99
2023-03-05T03:36:55.604Z,-0.96
2023-03-05T03:39:22.680Z,-0.85
2023-03-05T03:41:52.205Z,-0.83
2023-03-05T03:44:20.751Z,-0.70
2023-03-05T03:46:49.139Z,-0.61
2023-03-05T03:49:24.869Z,-0.61
2023-03-05T03:51:54.381Z,-0.62
2023-03-05T03:54:22.303Z,-0.53
2023-03-05T03:56:50.473Z,-0.50
2023-03-05T03:59:17.213Z,-0.49
2023-03-05T04:01:43.866Z,-0.56
2023-03-05T04:04:12.466Z,-0.66
2023-03-05T04:06:40.588Z,-0.74
2023-03-05T04:09:08.360Z,-0.69
2023-03-05T04:11:36.247Z,-0.80
2023-03-05T04:14:04.065Z,-0.82
2023-03-05T04:16:31.185Z,-0.82
2023-03-05T04:18:57.894Z,-0.91
2023-03-05T04:21:24.587Z,-0.90
2023-03-05T04:23:51.262Z,-0.96
2023-03-05T04:26:17.989Z,-0.96
2023-03-05T04:28:44.642Z,-1.16
2023-03-05T04:31:11.362Z,-1.18
2023-03-05T04:33:38.119Z,-1.10
2023-03-05T04:36:05.158Z,-1.11
2023-03-05T04:38:32.000Z,-1.16
2023-03-05T04:40:58.683Z,-1.36
2023-03-05T04:43:25.361Z,-1.14
2023-03-05T04:45:51.998Z,-1.14
2023-03-05T04:48:19.816Z,-0.95
2023-03-05T04:50:46.528Z,-0.96
2023-03-05T04:53:13.650Z,-0.88
2023-03-05T04:55:40.324Z,-0.78
2023-03-05T04:58:07.025Z,-0.74
2023-03-05T05:00:33.741Z,-0.69
2023-03-05T05:03:00.452Z,-0.62
2023-03-05T05:05:28.253Z,-0.64
2023-03-05T05:07:57.277Z,-0.61
2023-03-05T05:10:25.728Z,-0.62
2023-03-05T05:12:53.663Z,-0.62
2023-03-05T05:15:20.817Z,-0.48
2023-03-05T05:17:47.933Z,-0.40
2023-03-05T05:20:15.883Z,-0.40
2023-03-05T05:22:43.715Z,-0.31
2023-03-05T05:25:10.744Z,-0.20
2023-03-05T05:27:39.692Z,-0.07
2023-03-05T05:30:07.782Z,0.04
2023-03-05T05:32:35.094Z,0.23
2023-03-05T05:35:02.187Z,0.35
2023-03-05T05:37:30.687Z,0.44
2023-03-05T05:39:57.414Z,0.59
2023-03-05T05:42:25.226Z,0.58
2023-03-05T05:44:55.555Z,0.67
2023-03-05T05:47:22.470Z,0.57
2023-03-05T05:49:49.157Z,0.70
2023-03-05T05:52:16.365Z,0.78
2023-03-05T05:54:43.807Z,0.88
2023-03-05T05:57:10.460Z,0.94
2023-03-05T05:59:38.333Z,0.91
2023-03-05T06:02:07.910Z,0.91
2023-03-05T06:04:35.210Z,0.94
2023-03-05T06:07:03.198Z,0.94
2023-03-05T06:09:30.237Z,0.93
2023-03-05T06:11:56.901Z,1.15
2023-03-05T06:14:23.680Z,1.37
2023-03-05T06:16:50.366Z,1.93
2023-03-05T06:19:17.078Z,3.26
2023-03-05T06:21:44.334Z,5.25
2023-03-05T06:24:11.378Z,7.11
2023-03-05T06:26:38.241Z,8.23
2023-03-05T06:29:10.192Z,9.29
2023-03-05T06:31:37.416Z,8.93
2023-03-05T06:34:04.415Z,8.34
2023-03-05T06:36:31.254Z,8.00
2023-03-05T06:38:58.833Z,7.93
2023-03-05T06:41:29.015Z,7.13
2023-03-05T06:43:56.643Z,6.40
2023-03-05T06:46:29.132Z,6.62
2023-03-05T06:49:01.257Z,5.14
2023-03-05T06:51:36.675Z,5.08
2023-03-05T06:54:06.517Z,5.26
2023-03-05T06:56:36.267Z,5.26
2023-03-05T06:59:04.586Z,5.24
2023-03-05T07:01:31.354Z,5.10
2023-03-05T07:04:03.107Z,5.12
2023-03-05T07:06:32.963Z,5.13
2023-03-05T07:09:01.761Z,5.13
2023-03-05T07:11:30.101Z,5.27
2023-03-05T07:13:56.875Z,5.30
2023-03-05T07:16:26.887Z,5.86
2023-03-05T07:18:54.998Z,6.37
2023-03-05T07:21:24.669Z,6.82
2023-03-05T07:23:54.039Z,7.74
2023-03-05T07:26:21.483Z,9.51
2023-03-05T07:28:48.504Z,10.21
2023-03-05T07:31:19.501Z,10.59
2023-03-05T07:33:48.618Z,10.48
2023-03-05T07:36:16.776Z,9.60
2023-03-05T07:38:43.580Z,8.79
2023-03-05T07:41:14.004Z,9.81
2023-03-05T07:43:41.124Z,10.97
2023-03-05T07:46:10.065Z,10.90
2023-03-05T07:48:37.300Z,9.95
2023-03-05T07:51:06.846Z,9.68
2023-03-05T07:53:34.021Z,9.41
2023-03-05T07:56:00.822Z,11.07
2023-03-05T07:58:27.481Z,11.24
2023-03-05T08:00:54.175Z,12.76
2023-03-05T08:03:20.990Z,14.07
2023-03-05T08:05:47.618Z,14.57
2023-03-05T08:08:14.406Z,12.28
2023-03-05T08:10:41.137Z,11.91
2023-03-05T08:13:08.073Z,10.71
2023-03-05T08:15:34.844Z,10.95
2023-03-05T08:18:01.765Z,10.38
2023-03-05T08:20:28.966Z,10.01
2023-03-05T08:22:55.716Z,10.36
2023-03-05T08:25:22.793Z,11.32
2023-03-05T08:27:49.612Z,10.02
2023-03-05T08:30:22.397Z,9.56
2023-03-05T08:32:49.911Z,10.47
2023-03-05T08:35:16.772Z,11.04
2023-03-05T08:37:43.548Z,11.46
2023-03-05T08:40:10.956Z,11.05
2023-03-05T08:42:37.726Z,9.06
2023-03-05T08:45:04.897Z,9.07
2023-03-05T08:47:31.643Z,9.36
2023-03-05T08:49:58.801Z,9.12
2023-03-05T08:52:27.460Z,10.88
2023-03-05T08:54:54.349Z,12.40
2023-03-05T08:57:21.061Z,12.13
2023-03-05T08:59:49.167Z,11.88
2023-03-05T09:02:15.812Z,12.77
2023-03-05T09:04:42.510Z,11.72
2023-03-05T09:07:09.418Z,11.09
2023-03-05T09:09:37.189Z,10.60
2023-03-05T09:12:04.024Z,10.15
2023-03-05T09:14:30.994Z,10.37
2023-03-05T09:16:58.083Z,9.87
2023-03-05T09:19:25.233Z,9.70
2023-03-05T09:21:52.048Z,9.42
2023-03-05T09:24:19.190Z,9.50
2023-03-05T09:26:45.864Z,8.25
2023-03-05T09:29:12.673Z,8.34
2023-03-05T09:31:39.996Z,8.16
2023-03-05T09:34:08.412Z,7.82
2023-03-05T09:36:35.141Z,7.93
2023-03-05T09:39:01.968Z,8.09
2023-03-05T09:41:51.598Z,8.20
2023-03-05T09:44:24.987Z,8.65
2023-03-05T09:47:18.757Z,8.46
2023-03-05T09:50:18.656Z,8.21
2023-03-05T09:52:57.885Z,7.49
2023-03-05T09:55:34.358Z,6.38
2023-03-05T09:58:07.593Z,6.31
2023-03-05T10:00:50.438Z,6.07
2023-03-05T10:03:22.767Z,6.07
2023-03-05T10:06:16.921Z,5.91
2023-03-05T10:08:56.082Z,5.89
2023-03-05T10:11:41.161Z,5.67
2023-03-05T10:14:13.994Z,5.22
2023-03-05T10:16:46.811Z,5.41
2023-03-05T10:19:19.714Z,5.03
2023-03-05T10:21:46.308Z,5.07
2023-03-05T10:24:28.270Z,5.07
2023-03-05T10:27:06.451Z,4.62
2023-03-05T10:30:06.239Z,4.95
2023-03-05T10:32:32.938Z,4.78
2023-03-05T10:35:11.556Z,4.81
2023-03-05T10:38:12.802Z,5.25
2023-03-05T10:40:48.803Z,5.52
2023-03-05T10:43:43.783Z,5.69
2023-03-05T10:46:18.765Z,5.30
2023-03-05T10:48:50.364Z,5.02
2023-03-05T10:51:28.105Z,5.22
2023-03-05T10:54:02.135Z,5.08
2023-03-05T10:56:31.918Z,5.42
2023-03-05T10:58:58.708Z,5.53
2023-03-05T11:01:28.511Z,5.67
2023-03-05T11:04:03.981Z,5.74
2023-03-05T11:06:35.247Z,6.22
2023-03-05T11:09:24.485Z,6.70
2023-03-05T11:12:00.440Z,7.28
2023-03-05T11:14:33.418Z,7.54
2023-03-05T11:17:01.955Z,7.88
2023-03-05T11:19:34.727Z,7.48
2023-03-05T11:22:11.030Z,7.29
2023-03-05T11:24:38.052Z,6.67
2023-03-05T11:27:23.469Z,6.65
2023-03-05T11:29:50.197Z,6.57
2023-03-05T11:32:22.893Z,6.42
2023-03-05T11:34:49.911Z,6.37
2023-03-05T11:37:26.676Z,6.40
2023-03-05T11:40:21.175Z,6.28
2023-03-05T11:42:55.644Z,6.34
2023-03-05T11:45:24.000Z,5.84
2023-03-05T11:47:53.771Z,5.70
2023-03-05T11:50:24.828Z,5.53
2023-03-05T11:52:57.996Z,5.36
2023-03-05T11:55:33.879Z,5.12
2023-03-05T11:58:11.278Z,4.84
2023-03-05T12:00:43.217Z,4.73
2023-03-05T12:03:17.852Z,4.52
2023-03-05T12:05:56.329Z,4.43
2023-03-05T12:08:32.336Z,4.40
2023-03-05T12:11:17.936Z,4.31
2023-03-05T12:14:07.329Z,4.46
2023-03-05T12:16:41.752Z,4.48
2023-03-05T12:19:28.603Z,4.44
2023-03-05T12:21:57.171Z,4.10
2023-03-05T12:24:26.694Z,4.04
2023-03-05T12:26:57.180Z,4.26
2023-03-05T12:29:28.528Z,4.26
2023-03-05T12:31:55.390Z,4.31
2023-03-05T12:34:40.689Z,4.25
2023-03-05T12:37:23.416Z,4.30
2023-03-05T12:40:01.090Z,4.19
2023-03-05T12:42:31.515Z,4.31
2023-03-05T12:45:14.597Z,4.37
2023-03-05T12:48:10.760Z,4.25
2023-03-05T12:50:37.442Z,4.37
2023-03-05T12:53:04.382Z,4.36
2023-03-05T12:55:36.243Z,4.23
2023-03-05T12:58:12.719Z,4.45
2023-03-05T13:00:52.127Z,4.06
2023-03-05T13:03:24.054Z,4.06
2023-03-05T13:05:56.636Z,4.18
2023-03-05T13:08:28.131Z,4.39
2023-03-05T13:11:05.208Z,4.11
2023-03-05T13:13:43.980Z,4.03
2023-03-05T13:16:29.263Z,3.94
2023-03-05T13:19:01.432Z,4.04
2023-03-05T13:21:31.433Z,4.03
2023-03-05T13:24:01.136Z,3.89
2023-03-05T13:26:37.062Z,4.10
2023-03-05T13:29:19.937Z,4.11
2023-03-05T13:31:59.135Z,4.32
2023-03-05T13:34:40.936Z,4.28
2023-03-05T13:37:19.007Z,4.27
2023-03-05T13:39:56.859Z,4.55
2023-03-05T13:42:32.970Z,4.35
2023-03-05T13:45:24.216Z,4.19
2023-03-05T13:47:54.038Z,3.88
2023-03-05T13:50:33.105Z,4.10
2023-03-05T13:53:19.479Z,4.16
2023-03-05T13:55:50.757Z,4.11
2023-03-05T13:59:03.081Z,3.76
2023-03-05T14:01:33.737Z,3.93
2023-03-05T14:04:09.078Z,4.15
2023-03-05T14:06:43.462Z,4.07
2023-03-05T14:09:32.905Z,3.98
2023-03-05T14:11:59.760Z,4.17
2023-03-05T14:14:28.662Z,4.05
2023-03-05T14:16:55.764Z,3.97
2023-03-05T14:19:31.984Z,3.33
2023-03-05T14:21:58.836Z,3.19
2023-03-05T14:24:28.758Z,2.95
2023-03-05T14:26:57.407Z,3.08
2023-03-05T14:29:26.540Z,3.48
2023-03-05T14:32:00.659Z,3.47
2023-03-05T14:34:33.873Z,3.25
2023-03-05T14:37:17.215Z,3.26
2023-03-05T14:39:52.441Z,3.42
2023-03-05T14:42:32.289Z,3.53
2023-03-05T14:45:13.034Z,3.59
2023-03-05T14:47:40.035Z,3.46
2023-03-05T14:50:08.582Z,3.54
2023-03-05T14:52:35.875Z,3.65
2023-03-05T14:55:02.984Z,3.48
2023-03-05T14:57:32.403Z,3.59
2023-03-05T14:59:59.199Z,3.29
2023-03-05T15:02:27.281Z,3.50
2023-03-05T15:04:54.222Z,3.56
2023-03-05T15:07:23.357Z,3.65
2023-03-05T15:09:50.213Z,3.62
2023-03-05T15:12:17.848Z,3.66
2023-03-05T15:14:45.070Z,3.46
2023-03-05T15:17:34.423Z,3.17
2023-03-05T15:20:02.371Z,3.28
2023-03-05T15:22:29.099Z,3.18
2023-03-05T15:24:55.820Z,3.19
2023-03-05T15:27:22.535Z,3.10
2023-03-05T15:29:49.215Z,2.88
2023-03-05T15:32:15.942Z,2.96
2023-03-05T15:34:42.787Z,2.98
2023-03-05T15:37:09.842Z,3.08
2023-03-05T15:39:36.549Z,3.18
2023-03-05T15:42:06.222Z,3.33
2023-03-05T15:44:33.078Z,3.40
2023-03-05T15:46:59.740Z,3.25
2023-03-05T15:49:26.530Z,2.95
2023-03-05T15:51:55.017Z,2.91
2023-03-05T15:54:21.877Z,2.62
2023-03-05T15:56:49.225Z,2.51
2023-03-05T15:59:15.992Z,2.64
2023-03-05T16:01:48.939Z,2.91
2023-03-05T16:04:17.190Z,2.92
2023-03-05T16:06:47.037Z,3.01
2023-03-05T16:09:16.351Z,2.96
2023-03-05T16:11:48.104Z,2.71
2023-03-05T16:14:22.690Z,2.92
2023-03-05T16:16:50.872Z,2.90
2023-03-05T16:19:19.532Z,2.55
2023-03-05T16:21:46.985Z,2.50
2023-03-05T16:24:14.443Z,2.49
2023-03-05T16:26:42.323Z,2.62
2023-03-05T16:29:09.436Z,2.65
2023-03-05T16:31:38.331Z,2.79
2023-03-05T16:34:05.250Z,2.75
2023-03-05T16:36:35.490Z,2.73
2023-03-05T16:39:04.778Z,2.62
2023-03-05T16:41:32.307Z,2.70
2023-03-05T16:43:59.944Z,2.76
2023-03-05T16:46:29.476Z,2.67
2023-03-05T16:48:56.706Z,2.65
2023-03-05T16:51:23.649Z,2.60
2023-03-05T16:54:00.179Z,2.17
2023-03-05T16:56:26.955Z,2.14
2023-03-05T16:58:56.510Z,2.19
2023-03-05T17:01:24.405Z,2.31
2023-03-05T17:03:52.698Z,2.27
2023-03-05T17:06:22.725Z,2.03
2023-03-05T17:08:50.098Z,1.76
2023-03-05T17:11:18.047Z,1.94
2023-03-05T17:13:47.087Z,2.04
2023-03-05T17:16:18.151Z,2.12
2023-03-05T17:18:45.396Z,1.97
2023-03-05T17:21:12.350Z,1.96
2023-03-05T17:23:40.117Z,1.98
2023-03-05T17:26:08.982Z,2.46
2023-03-05T17:28:35.788Z,2.63
2023-03-05T17:31:04.127Z,2.83
2023-03-05T17:33:32.185Z,2.60
2023-03-05T17:35:59.355Z,1.90
2023-03-05T17:38:27.038Z,2.39
2023-03-05T17:40:54.299Z,2.37
2023-03-05T17:43:21.093Z,2.53
2023-03-05T17:45:48.368Z,2.65
2023-03-05T17:48:21.579Z,2.90
2023-03-05T17:50:48.249Z,3.05
2023-03-05T17:53:15.003Z,3.19
2023-03-05T17:55:41.738Z,3.16
2023-03-05T17:58:08.972Z,2.97
2023-03-05T18:00:36.553Z,2.95
2023-03-05T18:03:03.697Z,3.08
2023-03-05T18:05:30.975Z,3.30
2023-03-05T18:07:59.046Z,3.46
2023-03-05T18:10:27.555Z,3.59
2023-03-05T18:12:54.760Z,3.40
2023-03-05T18:15:23.290Z,3.26
2023-03-05T18:17:50.386Z,3.27
2023-03-05T18:20:34.328Z,3.40
2023-03-05T18:23:02.522Z,3.42
2023-03-05T18:25:33.677Z,3.33
2023-03-05T18:28:02.223Z,3.32
2023-03-05T18:30:30.170Z,3.09
2023-03-05T18:32:56.985Z,2.87
2023-03-05T18:35:24.586Z,2.94
2023-03-05T18:37:51.476Z,2.75
2023-03-05T18:40:22.569Z,2.83
2023-03-05T18:42:49.940Z,2.69
2023-03-05T18:45:18.897Z,2.82
2023-03-05T18:47:46.932Z,2.95
2023-03-05T18:50:16.879Z,3.10
2023-03-05T18:52:43.721Z,3.21
2023-03-05T18:55:36.737Z,3.32
2023-03-05T18:58:03.508Z,3.45
2023-03-05T19:00:31.892Z,3.22
2023-03-05T19:02:58.988Z,3.17
2023-03-05T19:05:26.855Z,3.24
2023-03-05T19:07:54.800Z,3.34
2023-03-05T19:10:22.720Z,3.03
2023-03-05T19:12:56.865Z,2.87
2023-03-05T19:15:23.693Z,2.69
2023-03-05T19:17:50.491Z,2.62
2023-03-05T19:20:18.869Z,2.44
2023-03-05T19:22:45.646Z,2.45
2023-03-05T19:25:12.702Z,2.29
2023-03-05T19:27:39.867Z,2.05
2023-03-05T19:30:07.250Z,2.13
2023-03-05T19:32:34.216Z,2.18
2023-03-05T19:35:01.225Z,2.13
2023-03-05T19:37:28.263Z,2.05
2023-03-05T19:39:55.074Z,1.98
2023-03-05T19:42:21.916Z,2.05
2023-03-05T19:44:49.031Z,2.03
2023-03-05T19:47:15.697Z,1.95
2023-03-05T19:49:42.572Z,1.96
2023-03-05T19:52:09.624Z,1.96
2023-03-05T19:54:36.503Z,1.91
2023-03-05T19:57:03.718Z,1.99
2023-03-05T19:59:30.382Z,2.02
2023-03-05T20:01:57.658Z,1.91
2023-03-05T20:04:24.933Z,2.15
2023-03-05T20:06:51.669Z,2.09
2023-03-05T20:09:18.724Z,1.98
2023-03-05T20:11:47.155Z,1.54
2023-03-05T20:14:14.760Z,1.45
2023-03-05T20:16:43.338Z,1.60
2023-03-05T20:19:16.555Z,1.64
2023-03-05T20:21:44.218Z,1.71
2023-03-05T20:24:14.277Z,1.85
2023-03-05T20:26:42.727Z,1.84
2023-03-05T20:29:10.078Z,1.72
2023-03-05T20:31:37.456Z,1.91
2023-03-05T20:34:07.198Z,1.88
2023-03-05T20:36:34.843Z,1.73
2023-03-05T20:39:03.389Z,1.95
2023-03-05T20:41:31.220Z,1.91
2023-03-05T20:43:58.029Z,2.02
2023-03-05T20:46:27.655Z,1.97
2023-03-05T20:48:57.733Z,1.67
2023-03-05T20:51:27.667Z,1.58
2023-03-05T20:54:02.554Z,1.78
2023-03-05T20:56:32.373Z,1.64
2023-03-05T20:59:04.189Z,1.73
2023-03-05T21:01:33.258Z,1.83
2023-03-05T21:04:01.127Z,1.73
2023-03-05T21:06:29.365Z,1.78
2023-03-05T21:08:57.602Z,1.71
2023-03-05T21:11:24.644Z,1.67
2023-03-05T21:13:51.440Z,1.83
2023-03-05T21:16:20.952Z,1.96
2023-03-05T21:18:48.133Z,1.92
2023-03-05T21:21:15.013Z,1.70
2023-03-05T21:23:41.715Z,1.90
2023-03-05T21:26:08.665Z,1.90
2023-03-05T21:28:35.654Z,1.99
2023-03-05T21:31:16.784Z,1.99
2023-03-05T21:33:43.914Z,1.97
2023-03-05T21:36:10.895Z,2.04
2023-03-05T21:38:37.832Z,2.10
2023-03-05T21:41:05.469Z,2.11
2023-03-05T21:43:32.829Z,2.10
2023-03-05T21:46:03.408Z,1.93
2023-03-05T21:48:31.250Z,1.85
2023-03-05T21:50:58.589Z,1.84
2023-03-05T21:53:25.984Z,1.70
2023-03-05T21:56:05.415Z,1.56
2023-03-05T21:58:33.956Z,1.86
2023-03-05T22:01:01.157Z,1.65
2023-03-05T22:03:28.568Z,1.60
2023-03-05T22:05:56.313Z,1.74
2023-03-05T22:08:24.123Z,1.84
2023-03-05T22:10:51.382Z,1.86
2023-03-05T22:13:20.154Z,1.94
2023-03-05T22:15:50.390Z,2.02
2023-03-05T22:18:19.957Z,2.08
2023-03-05T22:20:47.692Z,2.14
2023-03-05T22:23:15.088Z,2.17
2023-03-05T22:25:43.024Z,2.19
2023-03-05T22:28:11.598Z,2.20
2023-03-05T22:30:47.280Z,2.11
2023-03-05T22:33:13.976Z,1.93
2023-03-05T22:35:41.838Z,1.81
2023-03-05T22:38:12.682Z,1.75
2023-03-05T22:40:45.283Z,1.92
2023-03-05T22:43:12.598Z,2.00
2023-03-05T22:45:40.034Z,1.95
2023-03-05T22:48:07.311Z,2.02
2023-03-05T22:50:34.022Z,2.08
2023-03-05T22:53:00.740Z,2.15
2023-03-05T22:55:27.505Z,2.17
2023-03-05T22:57:54.695Z,2.17
2023-03-05T23:00:26.798Z,2.18
2023-03-05T23:02:53.848Z,2.05
2023-03-05T23:05:20.855Z,2.01
2023-03-05T23:07:47.530Z,1.83
2023-03-05T23:10:17.904Z,1.62
2023-03-05T23:12:49.426Z,1.57
2023-03-05T23:15:24.088Z,1.67
2023-03-05T23:17:50.981Z,1.51
2023-03-05T23:20:20.896Z,1.54
2023-03-05T23:22:48.369Z,1.55
2023-03-05T23:25:16.563Z,1.61
2023-03-05T23:27:43.802Z,1.49
2023-03-05T23:30:25.542Z,1.61
2023-03-05T23:33:13.987Z,1.36
2023-03-05T23:35:52.097Z,1.55
2023-03-05T23:38:19.406Z,1.71
2023-03-05T23:40:48.810Z,1.76
2023-03-05T23:43:17.432Z,1.77
2023-03-05T23:45:46.188Z,1.85
2023-03-05T23:48:12.878Z,1.92
2023-03-05T23:50:43.230Z,1.75
2023-03-05T23:53:10.904Z,1.61
2023-03-05T23:55:44.271Z,1.50
2023-03-05T23:58:11.713Z,1.48
